sensor_id;sensor_type;location;lat;lon;timestamp;pressure;altitude;pressure_sealevel;temperature;humidity
6464;BME280;3265;42.694;23.282;2024-01-30T00:00:54;75319.91;;;-143.21;61.31
6464;BME280;3265;42.694;23.282;2024-01-30T00:03:43;75331.81;;;-143.21;61.68
6464;BME280;3265;42.694;23.282;2024-01-30T00:06:13;75349.69;;;-143.21;61.71
6464;BME280;3265;42.694;23.282;2024-01-30T00:14:47;75333.81;;;-143.21;61.35
6464;BME280;3265;42.694;23.282;2024-01-30T00:17:23;75331.81;;;-143.21;62.06
6464;BME280;3265;42.694;23.282;2024-01-30T00:20:07;75337.78;;;-143.21;61.86
6464;BME280;3265;42.694;23.282;2024-01-30T00:25:23;75343.72;;;-143.21;61.26
6464;BME280;3265;42.694;23.282;2024-01-30T00:27:56;75363.56;;;-143.21;61.70
6464;BME280;3265;42.694;23.282;2024-01-30T00:42:42;75345.72;;;-143.21;62.26
6464;BME280;3265;42.694;23.282;2024-01-30T00:45:30;75339.75;;;-143.21;61.91
6464;BME280;3265;42.694;23.282;2024-01-30T00:48:17;75331.81;;;-143.21;61.44
6464;BME280;3265;42.694;23.282;2024-01-30T00:50:47;75329.84;;;-143.21;61.30
6464;BME280;3265;42.694;23.282;2024-01-30T00:56:01;75321.88;;;-143.21;61.36
6464;BME280;3265;42.694;23.282;2024-01-30T00:58:30;75333.81;;;-143.21;61.07
6464;BME280;3265;42.694;23.282;2024-01-30T01:00:57;75341.75;;;-143.21;61.57
6464;BME280;3265;42.694;23.282;2024-01-30T01:03:24;75347.69;;;-143.21;61.49
6464;BME280;3265;42.694;23.282;2024-01-30T01:05:51;75341.75;;;-143.21;61.28
6464;BME280;3265;42.694;23.282;2024-01-30T01:08:21;75331.81;;;-143.21;60.99
6464;BME280;3265;42.694;23.282;2024-01-30T01:14:01;75329.84;;;-143.21;61.31
6464;BME280;3265;42.694;23.282;2024-01-30T01:19:07;75339.75;;;-143.21;61.22
6464;BME280;3265;42.694;23.282;2024-01-30T01:24:26;75343.72;;;-143.21;60.94
6464;BME280;3265;42.694;23.282;2024-01-30T01:27:16;75371.50;;;-143.21;61.23
6464;BME280;3265;42.694;23.282;2024-01-30T01:29:50;75375.47;;;-143.21;61.68
6464;BME280;3265;42.694;23.282;2024-01-30T01:32:31;75383.44;;;-143.21;61.87
6464;BME280;3265;42.694;23.282;2024-01-30T01:38:46;75379.44;;;-143.21;61.87
6464;BME280;3265;42.694;23.282;2024-01-30T01:41:56;75395.34;;;-143.21;61.88
6464;BME280;3265;42.694;23.282;2024-01-30T01:44:54;75409.22;;;-143.21;62.33
6464;BME280;3265;42.694;23.282;2024-01-30T01:50:22;75401.28;;;-143.21;62.06
6464;BME280;3265;42.694;23.282;2024-01-30T01:52:50;75413.19;;;-143.21;62.52
6464;BME280;3265;42.694;23.282;2024-01-30T01:55:22;75433.03;;;-143.21;62.50
6464;BME280;3265;42.694;23.282;2024-01-30T01:57:53;75415.19;;;-143.21;62.74
6464;BME280;3265;42.694;23.282;2024-01-30T02:00:30;75425.09;;;-143.21;62.90
6464;BME280;3265;42.694;23.282;2024-01-30T02:02:58;75423.13;;;-143.21;62.67
6464;BME280;3265;42.694;23.282;2024-01-30T02:05:26;75423.13;;;-143.21;62.57
6464;BME280;3265;42.694;23.282;2024-01-30T02:11:14;75431.06;;;-143.21;62.54
6464;BME280;3265;42.694;23.282;2024-01-30T02:13:45;75437.03;;;-143.21;62.22
6464;BME280;3265;42.694;23.282;2024-01-30T02:16:13;75427.09;;;-143.21;62.02
6464;BME280;3265;42.694;23.282;2024-01-30T02:21:29;75431.06;;;-143.21;62.52
6464;BME280;3265;42.694;23.282;2024-01-30T02:23:57;75411.22;;;-143.21;62.04
6464;BME280;3265;42.694;23.282;2024-01-30T02:26:27;75419.16;;;-143.21;61.81
6464;BME280;3265;42.694;23.282;2024-01-30T02:28:58;75409.22;;;-143.21;61.78
6464;BME280;3265;42.694;23.282;2024-01-30T02:34:06;75401.28;;;-143.21;61.73
6464;BME280;3265;42.694;23.282;2024-01-30T02:36:38;75401.28;;;-143.21;61.84
6464;BME280;3265;42.694;23.282;2024-01-30T02:39:19;75399.31;;;-143.21;61.46
6464;BME280;3265;42.694;23.282;2024-01-30T02:41:45;75399.31;;;-143.21;61.31
6464;BME280;3265;42.694;23.282;2024-01-30T02:44:12;75407.25;;;-143.21;61.52
6464;BME280;3265;42.694;23.282;2024-01-30T02:46:39;75409.22;;;-143.21;61.65
6464;BME280;3265;42.694;23.282;2024-01-30T02:52:13;75395.34;;;-143.21;61.54
6464;BME280;3265;42.694;23.282;2024-01-30T02:54:42;75391.38;;;-143.21;61.52
6464;BME280;3265;42.694;23.282;2024-01-30T02:57:25;75397.31;;;-143.21;61.34
6464;BME280;3265;42.694;23.282;2024-01-30T03:02:53;75399.31;;;-143.21;61.25
6464;BME280;3265;42.694;23.282;2024-01-30T03:06:02;75375.47;;;-143.21;61.04
6464;BME280;3265;42.694;23.282;2024-01-30T03:08:17;75385.41;;;-143.21;61.14
6464;BME280;3265;42.694;23.282;2024-01-30T03:10:43;75381.44;;;-143.21;60.97
6464;BME280;3265;42.694;23.282;2024-01-30T03:16:24;75385.41;;;-143.21;61.19
6464;BME280;3265;42.694;23.282;2024-01-30T03:18:54;75377.47;;;-143.21;61.02
6464;BME280;3265;42.694;23.282;2024-01-30T03:21:20;75371.50;;;-143.21;60.83
6464;BME280;3265;42.694;23.282;2024-01-30T03:24:06;75387.41;;;-143.21;61.13
6464;BME280;3265;42.694;23.282;2024-01-30T03:26:33;75375.47;;;-143.21;61.06
6464;BME280;3265;42.694;23.282;2024-01-30T03:29:23;75369.53;;;-143.21;60.46
6464;BME280;3265;42.694;23.282;2024-01-30T03:32:10;75379.44;;;-143.21;60.21
6464;BME280;3265;42.694;23.282;2024-01-30T03:34:50;75371.50;;;-143.21;60.21
6464;BME280;3265;42.694;23.282;2024-01-30T03:37:33;75369.53;;;-143.21;60.03
6464;BME280;3265;42.694;23.282;2024-01-30T03:40:31;75357.63;;;-143.21;59.89
6464;BME280;3265;42.694;23.282;2024-01-30T03:43:26;75363.56;;;-143.21;59.49
6464;BME280;3265;42.694;23.282;2024-01-30T03:45:55;75349.69;;;-143.21;59.45
6464;BME280;3265;42.694;23.282;2024-01-30T03:48:22;75349.69;;;-143.21;59.65
6464;BME280;3265;42.694;23.282;2024-01-30T03:50:54;75367.53;;;-143.21;59.92
6464;BME280;3265;42.694;23.282;2024-01-30T03:59:29;75369.53;;;-143.21;59.03
6464;BME280;3265;42.694;23.282;2024-01-30T04:04:23;75355.63;;;-143.21;59.00
6464;BME280;3265;42.694;23.282;2024-01-30T04:07:09;75353.66;;;-143.21;58.89
6464;BME280;3265;42.694;23.282;2024-01-30T04:10:07;75365.56;;;-143.21;58.84
6464;BME280;3265;42.694;23.282;2024-01-30T04:12:48;75363.56;;;-143.21;58.91
6464;BME280;3265;42.694;23.282;2024-01-30T04:15:43;75377.47;;;-143.21;58.87
6464;BME280;3265;42.694;23.282;2024-01-30T04:21:06;75371.50;;;-143.21;59.26
6464;BME280;3265;42.694;23.282;2024-01-30T04:26:47;75345.72;;;-143.21;58.79
6464;BME280;3265;42.694;23.282;2024-01-30T04:29:30;75345.72;;;-143.21;58.62
6464;BME280;3265;42.694;23.282;2024-01-30T04:32:00;75349.69;;;-143.21;58.57
6464;BME280;3265;42.694;23.282;2024-01-30T04:34:33;75357.63;;;-143.21;58.44
6464;BME280;3265;42.694;23.282;2024-01-30T04:37:03;75355.63;;;-143.21;58.76
6464;BME280;3265;42.694;23.282;2024-01-30T04:39:30;75341.75;;;-143.21;58.43
6464;BME280;3265;42.694;23.282;2024-01-30T04:42:07;75339.75;;;-143.21;58.25
6464;BME280;3265;42.694;23.282;2024-01-30T04:44:53;75341.75;;;-143.21;58.17
6464;BME280;3265;42.694;23.282;2024-01-30T04:47:35;75359.59;;;-143.21;58.40
6464;BME280;3265;42.694;23.282;2024-01-30T04:50:29;75371.50;;;-143.21;58.77
6464;BME280;3265;42.694;23.282;2024-01-30T04:53:24;75367.53;;;-143.21;58.67
6464;BME280;3265;42.694;23.282;2024-01-30T04:56:17;75377.47;;;-143.21;59.03
6464;BME280;3265;42.694;23.282;2024-01-30T04:59:02;75381.44;;;-143.21;59.07
6464;BME280;3265;42.694;23.282;2024-01-30T05:04:10;75381.44;;;-143.21;59.05
6464;BME280;3265;42.694;23.282;2024-01-30T05:07:05;75415.19;;;-143.21;59.52
6464;BME280;3265;42.694;23.282;2024-01-30T05:09:45;75425.09;;;-143.21;60.04
6464;BME280;3265;42.694;23.282;2024-01-30T05:12:30;75444.97;;;-143.21;60.26
6464;BME280;3265;42.694;23.282;2024-01-30T05:14:57;75439.00;;;-143.21;60.45
6464;BME280;3265;42.694;23.282;2024-01-30T05:17:30;75442.97;;;-143.21;60.92
6464;BME280;3265;42.694;23.282;2024-01-30T05:20:25;75431.06;;;-143.21;60.73
6464;BME280;3265;42.694;23.282;2024-01-30T05:26:15;75435.03;;;-143.21;60.68
6464;BME280;3265;42.694;23.282;2024-01-30T05:32:37;75437.03;;;-143.21;60.89
6464;BME280;3265;42.694;23.282;2024-01-30T05:38:40;75437.03;;;-143.21;60.63
6464;BME280;3265;42.694;23.282;2024-01-30T05:41:38;75441.00;;;-143.21;60.67
6464;BME280;3265;42.694;23.282;2024-01-30T05:47:30;75444.97;;;-143.21;60.21
6464;BME280;3265;42.694;23.282;2024-01-30T05:50:12;75446.94;;;-143.21;60.57
6464;BME280;3265;42.694;23.282;2024-01-30T06:09:54;75504.50;;;-143.21;60.80
6464;BME280;3265;42.694;23.282;2024-01-30T06:12:33;75490.63;;;-143.21;60.13
6464;BME280;3265;42.694;23.282;2024-01-30T06:15:26;75514.44;;;-143.21;60.47
6464;BME280;3265;42.694;23.282;2024-01-30T06:18:19;75510.47;;;-143.21;60.42
6464;BME280;3265;42.694;23.282;2024-01-30T06:21:01;75498.56;;;-143.21;60.10
6464;BME280;3265;42.694;23.282;2024-01-30T06:23:37;75474.72;;;-143.21;59.27
6464;BME280;3265;42.694;23.282;2024-01-30T06:26:28;75484.66;;;-143.21;59.13
6464;BME280;3265;42.694;23.282;2024-01-30T06:28:55;75488.63;;;-143.21;59.33
6464;BME280;3265;42.694;23.282;2024-01-30T06:31:40;75484.66;;;-143.21;59.34
6464;BME280;3265;42.694;23.282;2024-01-30T06:34:07;75480.69;;;-143.21;58.82
6464;BME280;3265;42.694;23.282;2024-01-30T06:39:14;75448.94;;;-143.21;58.97
6464;BME280;3265;42.694;23.282;2024-01-30T06:41:41;75437.03;;;-143.21;58.56
6464;BME280;3265;42.694;23.282;2024-01-30T06:44:14;75437.03;;;-143.21;58.34
6464;BME280;3265;42.694;23.282;2024-01-30T06:46:54;75419.16;;;-143.21;58.25
6464;BME280;3265;42.694;23.282;2024-01-30T06:50:15;75409.22;;;-143.21;64.90
6464;BME280;3265;42.694;23.282;2024-01-30T06:55:38;75387.41;;;-143.21;59.77
6464;BME280;3265;42.694;23.282;2024-01-30T07:04:37;75381.44;;;-143.21;57.20
6464;BME280;3265;42.694;23.282;2024-01-30T07:10:20;75363.56;;;-143.21;56.77
6464;BME280;3265;42.694;23.282;2024-01-30T07:12:48;75349.69;;;-143.21;56.63
6464;BME280;3265;42.694;23.282;2024-01-30T07:15:21;75347.69;;;-143.21;56.24
6464;BME280;3265;42.694;23.282;2024-01-30T07:17:48;75335.78;;;-143.21;56.32
6464;BME280;3265;42.694;23.282;2024-01-30T07:20:15;75327.84;;;-143.21;56.60
6464;BME280;3265;42.694;23.282;2024-01-30T07:22:53;75325.88;;;-143.21;55.25
6464;BME280;3265;42.694;23.282;2024-01-30T07:25:20;75323.88;;;-143.21;55.43
6464;BME280;3265;42.694;23.282;2024-01-30T07:28:04;75327.84;;;-143.21;55.85
6464;BME280;3265;42.694;23.282;2024-01-30T07:30:36;75311.97;;;-143.21;55.05
6464;BME280;3265;42.694;23.282;2024-01-30T07:33:08;75309.97;;;-143.21;55.15
6464;BME280;3265;42.694;23.282;2024-01-30T07:35:49;75306.00;;;-143.21;55.37
6464;BME280;3265;42.694;23.282;2024-01-30T07:38:16;75308.00;;;-143.21;55.20
6464;BME280;3265;42.694;23.282;2024-01-30T07:40:43;75298.06;;;-143.21;53.93
6464;BME280;3265;42.694;23.282;2024-01-30T07:46:19;75302.03;;;-143.21;54.01
6464;BME280;3265;42.694;23.282;2024-01-30T07:48:53;75294.09;;;-143.21;53.79
6464;BME280;3265;42.694;23.282;2024-01-30T07:51:28;75311.97;;;-143.21;53.70
6464;BME280;3265;42.694;23.282;2024-01-30T07:54:01;75304.03;;;-143.21;54.08
6464;BME280;3265;42.694;23.282;2024-01-30T07:56:42;75315.94;;;-143.21;53.56
6464;BME280;3265;42.694;23.282;2024-01-30T07:59:29;75321.88;;;-143.21;54.00
6464;BME280;3265;42.694;23.282;2024-01-30T08:01:58;75313.94;;;-143.21;54.56
6464;BME280;3265;42.694;23.282;2024-01-30T08:04:28;75319.91;;;-143.21;54.25
6464;BME280;3265;42.694;23.282;2024-01-30T08:07:05;75302.03;;;-143.21;54.51
6464;BME280;3265;42.694;23.282;2024-01-30T08:09:45;75300.06;;;-143.21;54.30
6464;BME280;3265;42.694;23.282;2024-01-30T08:12:12;75306.00;;;-143.21;54.52
6464;BME280;3265;42.694;23.282;2024-01-30T08:15:11;75319.91;;;-143.21;54.51
6464;BME280;3265;42.694;23.282;2024-01-30T08:20:55;75313.94;;;-143.21;53.98
6464;BME280;3265;42.694;23.282;2024-01-30T08:23:51;75313.94;;;-143.21;54.55
6464;BME280;3265;42.694;23.282;2024-01-30T08:26:34;75315.94;;;-143.21;54.39
6464;BME280;3265;42.694;23.282;2024-01-30T08:29:27;75304.03;;;-143.21;54.31
6464;BME280;3265;42.694;23.282;2024-01-30T08:32:19;75304.03;;;-143.21;54.23
6464;BME280;3265;42.694;23.282;2024-01-30T08:34:46;75306.00;;;-143.21;53.88
6464;BME280;3265;42.694;23.282;2024-01-30T08:37:24;75284.19;;;-143.21;53.72
6464;BME280;3265;42.694;23.282;2024-01-30T08:40:03;75260.34;;;-143.21;53.57
6464;BME280;3265;42.694;23.282;2024-01-30T08:42:30;75266.31;;;-143.21;53.29
6464;BME280;3265;42.694;23.282;2024-01-30T08:44:57;75252.41;;;-143.21;53.62
6464;BME280;3265;42.694;23.282;2024-01-30T08:50:15;75238.53;;;-143.21;55.77
6464;BME280;3265;42.694;23.282;2024-01-30T08:52:43;75218.69;;;-143.21;57.11
6464;BME280;3265;42.694;23.282;2024-01-30T08:55:10;75208.75;;;-143.21;56.77
6464;BME280;3265;42.694;23.282;2024-01-30T08:57:44;75192.88;;;-143.21;55.85
6464;BME280;3265;42.694;23.282;2024-01-30T09:00:12;75186.91;;;-143.21;54.80
6464;BME280;3265;42.694;23.282;2024-01-30T09:02:46;75177.00;;;-143.21;54.58
6464;BME280;3265;42.694;23.282;2024-01-30T09:05:14;75159.13;;;-143.21;54.75
6464;BME280;3265;42.694;23.282;2024-01-30T09:07:42;75155.16;;;-143.21;54.64
6464;BME280;3265;42.694;23.282;2024-01-30T09:10:10;75133.34;;;-143.21;56.26
6464;BME280;3265;42.694;23.282;2024-01-30T09:12:36;75135.31;;;-143.21;54.83
6464;BME280;3265;42.694;23.282;2024-01-30T09:15:04;75127.38;;;-143.21;57.25
6464;BME280;3265;42.694;23.282;2024-01-30T09:17:37;75115.47;;;-143.21;55.58
6464;BME280;3265;42.694;23.282;2024-01-30T09:20:05;75109.50;;;-143.21;56.11
6464;BME280;3265;42.694;23.282;2024-01-30T09:22:39;75131.34;;;-143.21;55.10
6464;BME280;3265;42.694;23.282;2024-01-30T09:28:01;75153.19;;;-143.21;54.01
6464;BME280;3265;42.694;23.282;2024-01-30T09:30:28;75161.13;;;-143.21;54.34
6464;BME280;3265;42.694;23.282;2024-01-30T09:33:07;75139.28;;;-143.21;53.88
6464;BME280;3265;42.694;23.282;2024-01-30T09:36:13;75147.22;;;-143.21;53.88
6464;BME280;3265;42.694;23.282;2024-01-30T09:38:54;75149.22;;;-143.21;53.43
6464;BME280;3265;42.694;23.282;2024-01-30T09:41:39;75161.13;;;-143.21;53.57
6464;BME280;3265;42.694;23.282;2024-01-30T09:44:18;75173.03;;;-143.21;53.91
6464;BME280;3265;42.694;23.282;2024-01-30T09:46:53;75161.13;;;-143.21;54.06
6464;BME280;3265;42.694;23.282;2024-01-30T09:49:34;75077.75;;;-143.21;52.86
6464;BME280;3265;42.694;23.282;2024-01-30T09:52:02;74948.75;;;-143.21;50.65
6464;BME280;3265;42.694;23.282;2024-01-30T09:54:30;74801.88;;;-143.21;48.10
6464;BME280;3265;42.694;23.282;2024-01-30T09:57:15;74670.91;;;-143.21;46.42
6464;BME280;3265;42.694;23.282;2024-01-30T09:59:48;74543.91;;;-143.21;43.83
6464;BME280;3265;42.694;23.282;2024-01-30T10:02:39;74418.88;;;-143.21;41.19
6464;BME280;3265;42.694;23.282;2024-01-30T10:05:31;74327.59;;;-143.21;40.20
6464;BME280;3265;42.694;23.282;2024-01-30T10:11:15;74214.50;;;-143.21;38.47
6464;BME280;3265;42.694;23.282;2024-01-30T10:13:30;74151.00;;;-143.21;36.98
6464;BME280;3265;42.694;23.282;2024-01-30T10:16:09;74113.31;;;-143.21;36.86
6464;BME280;3265;42.694;23.282;2024-01-30T10:18:36;74077.59;;;-143.21;35.13
6464;BME280;3265;42.694;23.282;2024-01-30T10:21:23;74178.78;;;-143.21;35.23
6464;BME280;3265;42.694;23.282;2024-01-30T10:23:50;74266.09;;;-143.21;36.66
6464;BME280;3265;42.694;23.282;2024-01-30T10:26:17;74331.56;;;-143.21;37.33
6464;BME280;3265;42.694;23.282;2024-01-30T10:28:54;74397.06;;;-143.21;38.33
6464;BME280;3265;42.694;23.282;2024-01-30T10:31:31;74381.19;;;-143.21;38.34
6464;BME280;3265;42.694;23.282;2024-01-30T10:34:12;74399.03;;;-143.21;38.29
6464;BME280;3265;42.694;23.282;2024-01-30T10:36:50;74319.66;;;-143.21;37.28
6464;BME280;3265;42.694;23.282;2024-01-30T10:39:17;74375.22;;;-143.21;36.88
6464;BME280;3265;42.694;23.282;2024-01-30T10:41:44;74478.41;;;-143.21;37.87
6464;BME280;3265;42.694;23.282;2024-01-30T10:44:19;74502.22;;;-143.21;39.23
6464;BME280;3265;42.694;23.282;2024-01-30T10:47:00;74526.03;;;-143.21;39.58
6464;BME280;3265;42.694;23.282;2024-01-30T10:49:37;74535.97;;;-143.21;39.61
6464;BME280;3265;42.694;23.282;2024-01-30T11:02:41;74137.13;;;-143.21;35.41
6464;BME280;3265;42.694;23.282;2024-01-30T11:05:40;74039.88;;;-143.21;34.59
6464;BME280;3265;42.694;23.282;2024-01-30T11:22:42;73831.56;;;-143.21;31.30
6464;BME280;3265;42.694;23.282;2024-01-30T11:25:14;73869.25;;;-143.21;31.20
6464;BME280;3265;42.694;23.282;2024-01-30T11:27:45;73803.78;;;-143.21;30.96
6464;BME280;3265;42.694;23.282;2024-01-30T11:30:29;73734.34;;;-143.21;30.33
6464;BME280;3265;42.694;23.282;2024-01-30T11:33:04;73706.56;;;-143.21;29.45
6464;BME280;3265;42.694;23.282;2024-01-30T11:35:56;73897.03;;;-143.21;30.60
6464;BME280;3265;42.694;23.282;2024-01-30T11:38:39;74014.09;;;-143.21;31.44
6464;BME280;3265;42.694;23.282;2024-01-30T11:41:09;74121.25;;;-143.21;32.86
6464;BME280;3265;42.694;23.282;2024-01-30T12:11:46;74085.53;;;-143.21;33.25
6464;BME280;3265;42.694;23.282;2024-01-30T12:20:12;73797.84;;;-143.21;30.54
6464;BME280;3265;42.694;23.282;2024-01-30T12:23:15;73696.66;;;-143.21;29.69
6464;BME280;3265;42.694;23.282;2024-01-30T12:26:02;73643.09;;;-143.21;28.71
6464;BME280;3265;42.694;23.282;2024-01-30T12:28:50;73617.28;;;-143.21;29.00
6464;BME280;3265;42.694;23.282;2024-01-30T12:31:41;73635.16;;;-143.21;28.59
6464;BME280;3265;42.694;23.282;2024-01-30T12:34:25;73635.16;;;-143.21;28.78
6464;BME280;3265;42.694;23.282;2024-01-30T12:36:52;73629.19;;;-143.21;28.82
6464;BME280;3265;42.694;23.282;2024-01-30T12:39:19;73621.25;;;-143.21;28.73
6464;BME280;3265;42.694;23.282;2024-01-30T12:41:47;73565.72;;;-143.21;39.44
6464;BME280;3265;42.694;23.282;2024-01-30T12:47:14;73516.13;;;-143.21;28.06
6464;BME280;3265;42.694;23.282;2024-01-30T12:52:08;73575.63;;;-143.21;28.09
6464;BME280;3265;42.694;23.282;2024-01-30T12:54:38;73569.69;;;-143.21;27.83
6464;BME280;3265;42.694;23.282;2024-01-30T12:57:11;73551.81;;;-143.21;28.30
6464;BME280;3265;42.694;23.282;2024-01-30T12:59:51;73512.16;;;-143.21;27.68
6464;BME280;3265;42.694;23.282;2024-01-30T13:02:26;73492.31;;;-143.21;27.43
6464;BME280;3265;42.694;23.282;2024-01-30T13:05:01;73541.91;;;-143.21;27.73
6464;BME280;3265;42.694;23.282;2024-01-30T13:07:39;73520.09;;;-143.21;27.87
6464;BME280;3265;42.694;23.282;2024-01-30T13:10:06;73482.38;;;-143.21;27.63
6464;BME280;3265;42.694;23.282;2024-01-30T13:12:33;73430.81;;;-143.21;27.40
6464;BME280;3265;42.694;23.282;2024-01-30T13:15:03;73438.75;;;-143.21;27.44
6464;BME280;3265;42.694;23.282;2024-01-30T13:17:37;73407.00;;;-143.21;27.11
6464;BME280;3265;42.694;23.282;2024-01-30T13:20:06;73438.75;;;-143.21;27.04
6464;BME280;3265;42.694;23.282;2024-01-30T13:22:43;73464.53;;;-143.21;27.24
6464;BME280;3265;42.694;23.282;2024-01-30T13:26:22;73516.13;;;-143.21;27.13
6464;BME280;3265;42.694;23.282;2024-01-30T13:28:31;73474.47;;;-143.21;27.45
6464;BME280;3265;42.694;23.282;2024-01-30T13:31:08;73446.69;;;-143.21;27.08
6464;BME280;3265;42.694;23.282;2024-01-30T13:33:46;73442.72;;;-143.21;27.04
6464;BME280;3265;42.694;23.282;2024-01-30T13:36:14;73403.03;;;-143.21;26.90
6464;BME280;3265;42.694;23.282;2024-01-30T13:38:55;73399.06;;;-143.21;26.78
6464;BME280;3265;42.694;23.282;2024-01-30T13:41:23;73361.38;;;-143.21;26.52
6464;BME280;3265;42.694;23.282;2024-01-30T13:43:50;73363.38;;;-143.21;26.22
6464;BME280;3265;42.694;23.282;2024-01-30T13:56:22;73422.88;;;-143.21;26.41
6464;BME280;3265;42.694;23.282;2024-01-30T13:59:07;73533.97;;;-143.21;27.44
6464;BME280;3265;42.694;23.282;2024-01-30T14:04:49;73686.72;;;-143.21;28.29
6464;BME280;3265;42.694;23.282;2024-01-30T14:10:09;73946.63;;;-143.21;30.57
6464;BME280;3265;42.694;23.282;2024-01-30T14:18:19;74196.66;;;-143.21;33.36
6464;BME280;3265;42.694;23.282;2024-01-30T14:24:42;74359.34;;;-143.21;35.37
6464;BME280;3265;42.694;23.282;2024-01-30T14:27:35;74401.03;;;-143.21;35.82
6464;BME280;3265;42.694;23.282;2024-01-30T14:30:11;74456.59;;;-143.21;37.39
6464;BME280;3265;42.694;23.282;2024-01-30T14:35:06;74549.84;;;-143.21;39.33
6464;BME280;3265;42.694;23.282;2024-01-30T14:37:34;74585.56;;;-143.21;39.57
6464;BME280;3265;42.694;23.282;2024-01-30T14:40:01;74589.53;;;-143.21;39.87
6464;BME280;3265;42.694;23.282;2024-01-30T14:42:32;74631.22;;;-143.21;39.94
6464;BME280;3265;42.694;23.282;2024-01-30T14:45:27;74664.97;;;-143.21;40.52
6464;BME280;3265;42.694;23.282;2024-01-30T15:07:36;74869.38;;;-143.21;45.78
6464;BME280;3265;42.694;23.282;2024-01-30T15:10:10;74877.31;;;-143.21;45.65
6464;BME280;3265;42.694;23.282;2024-01-30T15:12:53;74918.97;;;-143.21;45.64
6464;BME280;3265;42.694;23.282;2024-01-30T15:15:20;74901.13;;;-143.21;45.86
6464;BME280;3265;42.694;23.282;2024-01-30T15:17:47;74901.13;;;-143.21;46.33
6464;BME280;3265;42.694;23.282;2024-01-30T15:20:38;74920.97;;;-143.21;46.16
6464;BME280;3265;42.694;23.282;2024-01-30T15:35:00;74974.56;;;-143.21;46.50
6464;BME280;3265;42.694;23.282;2024-01-30T15:40:35;74998.38;;;-143.21;47.76
6464;BME280;3265;42.694;23.282;2024-01-30T15:43:25;75018.22;;;-143.21;47.92
6464;BME280;3265;42.694;23.282;2024-01-30T15:45:55;75010.28;;;-143.21;48.36
6464;BME280;3265;42.694;23.282;2024-01-30T15:51:13;75032.09;;;-143.21;48.24
6464;BME280;3265;42.694;23.282;2024-01-30T15:53:40;75030.13;;;-143.21;48.24
6464;BME280;3265;42.694;23.282;2024-01-30T15:56:10;75042.03;;;-143.21;48.37
6464;BME280;3265;42.694;23.282;2024-01-30T15:58:38;75044.03;;;-143.21;48.38
6464;BME280;3265;42.694;23.282;2024-01-30T16:01:08;75044.03;;;-143.21;49.34
6464;BME280;3265;42.694;23.282;2024-01-30T16:06:21;75051.97;;;-143.21;48.92
6464;BME280;3265;42.694;23.282;2024-01-30T16:08:56;75053.94;;;-143.21;49.59
6464;BME280;3265;42.694;23.282;2024-01-30T16:11:23;75065.84;;;-143.21;49.39
6464;BME280;3265;42.694;23.282;2024-01-30T16:13:50;75059.91;;;-143.21;49.92
6464;BME280;3265;42.694;23.282;2024-01-30T16:16:23;75055.94;;;-143.21;49.44
6464;BME280;3265;42.694;23.282;2024-01-30T16:18:51;75057.91;;;-143.21;49.27
6464;BME280;3265;42.694;23.282;2024-01-30T16:21:28;75079.75;;;-143.21;49.26
6464;BME280;3265;42.694;23.282;2024-01-30T16:24:04;75089.66;;;-143.21;50.18
6464;BME280;3265;42.694;23.282;2024-01-30T16:26:31;75101.56;;;-143.21;49.73
6464;BME280;3265;42.694;23.282;2024-01-30T16:29:09;75097.59;;;-143.21;50.09
6464;BME280;3265;42.694;23.282;2024-01-30T16:32:10;75111.50;;;-143.21;49.86
6464;BME280;3265;42.694;23.282;2024-01-30T16:34:40;75105.53;;;-143.21;50.21
6464;BME280;3265;42.694;23.282;2024-01-30T16:37:11;75119.44;;;-143.21;50.71
6464;BME280;3265;42.694;23.282;2024-01-30T16:39:41;75119.44;;;-143.21;50.86
6464;BME280;3265;42.694;23.282;2024-01-30T16:42:08;75119.44;;;-143.21;50.51
6464;BME280;3265;42.694;23.282;2024-01-30T16:44:46;75121.44;;;-143.21;50.52
6464;BME280;3265;42.694;23.282;2024-01-30T16:47:13;75141.28;;;-143.21;50.98
6464;BME280;3265;42.694;23.282;2024-01-30T16:49:43;75139.28;;;-143.21;51.41
6464;BME280;3265;42.694;23.282;2024-01-30T16:52:37;75157.16;;;-143.21;51.11
6464;BME280;3265;42.694;23.282;2024-01-30T16:55:17;75171.03;;;-143.21;51.57
6464;BME280;3265;42.694;23.282;2024-01-30T16:57:49;75171.03;;;-143.21;51.74
6464;BME280;3265;42.694;23.282;2024-01-30T17:00:16;75173.03;;;-143.21;52.30
6464;BME280;3265;42.694;23.282;2024-01-30T17:03:08;75171.03;;;-143.21;51.93
6464;BME280;3265;42.694;23.282;2024-01-30T17:05:35;75171.03;;;-143.21;51.83
6464;BME280;3265;42.694;23.282;2024-01-30T17:08:09;75186.91;;;-143.21;52.22
6464;BME280;3265;42.694;23.282;2024-01-30T17:10:46;75180.97;;;-143.21;51.59
6464;BME280;3265;42.694;23.282;2024-01-30T17:13:16;75182.94;;;-143.21;51.46
6464;BME280;3265;42.694;23.282;2024-01-30T17:16:09;75188.91;;;-143.21;51.75
6464;BME280;3265;42.694;23.282;2024-01-30T17:18:36;75192.88;;;-143.21;52.43
6464;BME280;3265;42.694;23.282;2024-01-30T17:22:02;75190.88;;;-143.21;52.44
6464;BME280;3265;42.694;23.282;2024-01-30T17:24:17;75194.88;;;-143.21;52.05
6464;BME280;3265;42.694;23.282;2024-01-30T17:27:04;75186.91;;;-143.21;52.27
6464;BME280;3265;42.694;23.282;2024-01-30T17:30:23;75190.88;;;-143.21;51.65
6464;BME280;3265;42.694;23.282;2024-01-30T17:32:53;75198.81;;;-143.21;52.20
6464;BME280;3265;42.694;23.282;2024-01-30T17:35:26;75196.84;;;-143.21;52.58
6464;BME280;3265;42.694;23.282;2024-01-30T17:37:53;75198.81;;;-143.21;52.49
6464;BME280;3265;42.694;23.282;2024-01-30T17:40:21;75204.78;;;-143.21;52.83
6464;BME280;3265;42.694;23.282;2024-01-30T17:42:48;75198.81;;;-143.21;52.71
6464;BME280;3265;42.694;23.282;2024-01-30T17:45:15;75196.84;;;-143.21;52.67
6464;BME280;3265;42.694;23.282;2024-01-30T17:47:56;75196.84;;;-143.21;52.96
6464;BME280;3265;42.694;23.282;2024-01-30T17:50:23;75192.88;;;-143.21;52.60
6464;BME280;3265;42.694;23.282;2024-01-30T17:52:50;75192.88;;;-143.21;52.24
6464;BME280;3265;42.694;23.282;2024-01-30T17:55:29;75188.91;;;-143.21;52.70
6464;BME280;3265;42.694;23.282;2024-01-30T17:57:59;75188.91;;;-143.21;52.76
6464;BME280;3265;42.694;23.282;2024-01-30T18:00:28;75198.81;;;-143.21;52.36
6464;BME280;3265;42.694;23.282;2024-01-30T18:02:55;75198.81;;;-143.21;52.59